createdAt,value
2022-08-20T00:01:10.409Z,16.79
2022-08-20T00:03:41.276Z,16.68
2022-08-20T00:06:22.005Z,16.61
2022-08-20T00:08:49.472Z,16.72
2022-08-20T00:11:21.389Z,16.63
2022-08-20T00:13:53.954Z,16.55
2022-08-20T00:16:23.616Z,16.50
2022-08-20T00:18:51.097Z,16.47
2022-08-20T00:21:20.788Z,16.54
2022-08-20T00:23:50.360Z,16.57
2022-08-20T00:26:18.610Z,16.51
2022-08-20T00:28:46.157Z,16.46
2022-08-20T00:31:17.032Z,16.48
2022-08-20T00:33:44.123Z,16.44
2022-08-20T00:36:12.644Z,16.55
2022-08-20T00:38:41.605Z,16.46
2022-08-20T00:41:12.851Z,16.49
2022-08-20T00:43:45.396Z,16.63
2022-08-20T00:46:18.175Z,16.51
2022-08-20T00:48:48.567Z,16.66
2022-08-20T00:51:32.339Z,16.77
2022-08-20T00:54:25.998Z,16.87
2022-08-20T00:56:58.743Z,16.76
2022-08-20T00:59:29.986Z,16.62
2022-08-20T01:01:57.996Z,16.64
2022-08-20T01:04:26.654Z,16.61
2022-08-20T01:06:53.734Z,16.80
2022-08-20T01:09:49.735Z,16.83
2022-08-20T01:12:08.793Z,16.68
2022-08-20T01:14:35.815Z,16.57
2022-08-20T01:17:06.637Z,16.64
2022-08-20T01:19:46.726Z,16.57
2022-08-20T01:22:39.618Z,16.53
2022-08-20T01:25:28.620Z,16.55
2022-08-20T01:27:56.241Z,16.52
2022-08-20T01:30:26.580Z,16.54
2022-08-20T01:32:53.652Z,16.55
2022-08-20T01:35:21.970Z,16.57
2022-08-20T01:37:48.788Z,16.52
2022-08-20T01:40:23.780Z,16.48
2022-08-20T01:42:58.895Z,16.46
2022-08-20T01:45:30.850Z,16.49
2022-08-20T01:47:58.331Z,16.51
2022-08-20T01:50:29.055Z,16.43
2022-08-20T01:53:04.724Z,16.46
2022-08-20T01:55:34.910Z,16.49
2022-08-20T01:58:02.332Z,16.54
2022-08-20T02:00:29.505Z,16.50
2022-08-20T02:02:57.615Z,16.58
2022-08-20T02:05:24.652Z,16.58
2022-08-20T02:07:57.425Z,16.55
2022-08-20T02:10:24.566Z,16.54
2022-08-20T02:12:51.551Z,16.57
2022-08-20T02:15:34.727Z,16.57
2022-08-20T02:18:10.186Z,16.59
2022-08-20T02:20:37.497Z,16.71
2022-08-20T02:23:05.786Z,16.77
2022-08-20T02:25:35.666Z,16.71
2022-08-20T02:28:10.288Z,16.81
2022-08-20T02:30:41.900Z,16.72
2022-08-20T02:33:12.776Z,16.63
2022-08-20T02:35:42.540Z,16.61
2022-08-20T02:38:11.258Z,16.60
2022-08-20T02:40:38.045Z,16.53
2022-08-20T02:43:06.427Z,16.56
2022-08-20T02:45:43.964Z,16.66
2022-08-20T02:48:21.095Z,16.63
2022-08-20T02:50:51.319Z,16.61
2022-08-20T02:53:18.897Z,16.60
2022-08-20T02:55:45.872Z,16.55
2022-08-20T02:58:13.197Z,16.52
2022-08-20T03:00:41.538Z,16.50
2022-08-20T03:03:10.711Z,16.39
2022-08-20T03:05:39.310Z,16.51
2022-08-20T03:08:08.770Z,16.52
2022-08-20T03:10:36.982Z,16.49
2022-08-20T03:13:04.686Z,16.56
2022-08-20T03:15:33.764Z,16.56
2022-08-20T03:18:01.059Z,16.60
2022-08-20T03:20:28.265Z,16.57
2022-08-20T03:22:55.119Z,16.58
2022-08-20T03:25:22.789Z,16.65
2022-08-20T03:27:54.865Z,16.61
2022-08-20T03:30:24.423Z,16.72
2022-08-20T03:32:51.410Z,16.64
2022-08-20T03:35:20.488Z,16.55
2022-08-20T03:37:48.347Z,16.59
2022-08-20T03:40:26.030Z,16.58
2022-08-20T03:42:53.076Z,16.49
2022-08-20T03:45:21.732Z,16.57
2022-08-20T03:47:49.999Z,16.60
2022-08-20T03:50:23.233Z,16.55
2022-08-20T03:52:53.114Z,16.54
2022-08-20T03:55:22.046Z,16.51
2022-08-20T03:58:02.563Z,16.45
2022-08-20T04:00:40.720Z,16.59
2022-08-20T04:03:08.742Z,16.47
2022-08-20T04:05:40.513Z,16.54
2022-08-20T04:08:13.206Z,16.62
2022-08-20T04:10:40.480Z,16.54
2022-08-20T04:13:08.580Z,16.62
2022-08-20T04:15:37.452Z,16.57
2022-08-20T04:18:10.654Z,16.55
2022-08-20T04:20:39.819Z,16.53
2022-08-20T04:23:08.371Z,16.64
2022-08-20T04:25:37.209Z,16.59
2022-08-20T04:28:16.390Z,16.54
2022-08-20T04:30:43.434Z,16.50
2022-08-20T04:33:24.361Z,16.48
2022-08-20T04:36:05.970Z,16.56
2022-08-20T04:38:50.117Z,16.59
2022-08-20T04:41:23.445Z,16.64
2022-08-20T04:43:53.669Z,16.61
2022-08-20T04:46:21.236Z,16.74
2022-08-20T04:48:50.178Z,16.67
2022-08-20T04:51:18.176Z,16.70
2022-08-20T04:53:52.308Z,16.64
2022-08-20T04:56:26.787Z,16.63
2022-08-20T04:58:56.177Z,16.68
2022-08-20T05:01:26.337Z,16.64
2022-08-20T05:03:55.180Z,16.73
2022-08-20T05:06:28.564Z,16.75
2022-08-20T05:08:58.041Z,16.72
2022-08-20T05:11:33.971Z,16.79
2022-08-20T05:14:08.986Z,16.74
2022-08-20T05:16:40.522Z,16.70
2022-08-20T05:19:12.715Z,16.78
2022-08-20T05:21:40.773Z,16.75
2022-08-20T05:24:08.449Z,16.69
2022-08-20T05:26:35.961Z,16.73
2022-08-20T05:29:05.412Z,16.78
2022-08-20T05:31:33.906Z,16.85
2022-08-20T05:34:11.303Z,16.80
2022-08-20T05:36:49.138Z,16.85
2022-08-20T05:39:21.596Z,16.90
2022-08-20T05:41:50.232Z,17.08
2022-08-20T05:44:18.459Z,17.04
2022-08-20T05:46:47.670Z,17.09
2022-08-20T05:49:19.238Z,17.15
2022-08-20T05:51:46.792Z,17.11
2022-08-20T05:54:15.662Z,17.14
2022-08-20T05:56:42.740Z,17.22
2022-08-20T05:59:10.160Z,17.28
2022-08-20T06:01:39.102Z,17.49
2022-08-20T06:04:25.134Z,17.38
2022-08-20T06:06:55.087Z,17.35
2022-08-20T06:09:30.885Z,17.37
2022-08-20T06:12:01.208Z,17.43
2022-08-20T06:14:29.522Z,17.46
2022-08-20T06:17:02.988Z,17.47
2022-08-20T06:19:32.551Z,17.51
2022-08-20T06:22:00.891Z,17.61
2022-08-20T06:24:27.594Z,17.52
2022-08-20T06:27:02.993Z,17.63
2022-08-20T06:29:30.417Z,17.73
2022-08-20T06:31:57.174Z,17.82
2022-08-20T06:34:28.382Z,17.92
2022-08-20T06:36:59.778Z,17.83
2022-08-20T06:39:31.181Z,17.76
2022-08-20T06:41:58.775Z,17.72
2022-08-20T06:44:26.067Z,17.79
2022-08-20T06:46:53.280Z,17.81
2022-08-20T06:49:20.053Z,17.92
2022-08-20T06:51:50.059Z,18.03
2022-08-20T06:54:19.201Z,17.97
2022-08-20T06:56:46.310Z,17.93
2022-08-20T06:59:12.958Z,18.00
2022-08-20T07:01:39.787Z,18.00
2022-08-20T07:04:10.672Z,18.05
2022-08-20T07:06:37.372Z,18.07
2022-08-20T07:09:04.117Z,18.09
2022-08-20T07:11:30.777Z,18.27
2022-08-20T07:13:58.538Z,18.22
2022-08-20T07:16:26.176Z,18.26
2022-08-20T07:18:53.047Z,18.34
2022-08-20T07:21:19.752Z,18.31
2022-08-20T07:23:49.606Z,18.35
2022-08-20T07:26:16.845Z,18.37
2022-08-20T07:28:43.539Z,18.25
2022-08-20T07:31:28.761Z,18.39
2022-08-20T07:33:58.777Z,18.35
2022-08-20T07:36:27.034Z,18.24
2022-08-20T07:38:54.746Z,18.11
2022-08-20T07:41:23.958Z,18.10
2022-08-20T07:43:50.703Z,18.10
2022-08-20T07:46:20.875Z,18.11
2022-08-20T07:48:51.309Z,18.12
2022-08-20T07:51:20.675Z,18.28
2022-08-20T07:53:48.172Z,18.35
2022-08-20T07:56:19.195Z,18.40
2022-08-20T07:58:50.428Z,18.37
2022-08-20T08:01:25.580Z,18.33
2022-08-20T08:03:52.822Z,18.41
2022-08-20T08:06:30.293Z,18.48
2022-08-20T08:09:11.419Z,18.53
2022-08-20T08:11:46.447Z,18.62
2022-08-20T08:14:14.342Z,18.79
2022-08-20T08:16:45.396Z,18.97
2022-08-20T08:19:14.327Z,18.96
2022-08-20T08:21:41.401Z,18.98
2022-08-20T08:24:08.246Z,19.08
2022-08-20T08:26:34.891Z,19.03
2022-08-20T08:29:02.556Z,19.03
2022-08-20T08:31:29.522Z,19.30
2022-08-20T08:33:56.307Z,19.37
2022-08-20T08:36:23.592Z,19.17
2022-08-20T08:38:50.651Z,19.31
2022-08-20T08:41:22.197Z,19.41
2022-08-20T08:43:55.807Z,19.47
2022-08-20T08:46:27.031Z,19.62
2022-08-20T08:48:57.830Z,19.60
2022-08-20T08:51:39.597Z,19.61
2022-08-20T08:54:08.434Z,19.58
2022-08-20T08:56:36.606Z,19.72
2022-08-20T08:59:11.322Z,19.86
2022-08-20T09:01:53.750Z,20.04
2022-08-20T09:04:30.599Z,20.05
2022-08-20T09:06:58.823Z,20.10
2022-08-20T09:09:32.345Z,20.04
2022-08-20T09:12:08.726Z,19.92
2022-08-20T09:14:36.283Z,20.00
2022-08-20T09:17:03.897Z,20.11
2022-08-20T09:19:30.922Z,20.14
2022-08-20T09:21:58.223Z,20.04
2022-08-20T09:24:25.094Z,19.85
2022-08-20T09:26:52.014Z,19.93
2022-08-20T09:29:18.827Z,19.92
2022-08-20T09:31:45.866Z,19.97
2022-08-20T09:34:13.539Z,20.01
2022-08-20T09:36:40.184Z,20.00
2022-08-20T09:39:07.412Z,19.84
2022-08-20T09:41:34.667Z,19.89
2022-08-20T09:44:02.431Z,19.91
2022-08-20T09:46:29.193Z,20.22
2022-08-20T09:48:55.861Z,20.10
2022-08-20T09:51:23.161Z,20.04
2022-08-20T09:53:50.551Z,19.98
2022-08-20T09:56:18.119Z,19.89
2022-08-20T09:58:54.140Z,20.05
2022-08-20T10:01:23.062Z,20.39
2022-08-20T10:03:50.792Z,20.39
2022-08-20T10:06:20.420Z,20.62
2022-08-20T10:08:48.856Z,20.80
2022-08-20T10:11:16.977Z,21.04
2022-08-20T10:13:46.166Z,21.32
2022-08-20T10:16:13.544Z,21.40
2022-08-20T10:18:40.362Z,21.60
2022-08-20T10:21:12.330Z,21.68
2022-08-20T10:23:39.120Z,21.50
2022-08-20T10:26:08.207Z,21.20
2022-08-20T10:28:36.277Z,20.81
2022-08-20T10:31:06.510Z,20.24
2022-08-20T10:33:35.444Z,20.35
2022-08-20T10:36:10.990Z,19.96
2022-08-20T10:38:38.058Z,19.72
2022-08-20T10:41:05.373Z,19.32
2022-08-20T10:43:32.445Z,19.25
2022-08-20T10:45:59.623Z,19.28
2022-08-20T10:48:26.733Z,19.30
2022-08-20T10:50:53.572Z,19.52
2022-08-20T10:53:20.203Z,19.68
2022-08-20T10:55:47.374Z,19.74
2022-08-20T10:58:14.520Z,19.93
2022-08-20T11:00:41.846Z,19.89
2022-08-20T11:03:08.936Z,19.86
2022-08-20T11:05:35.955Z,19.61
2022-08-20T11:08:04.990Z,19.66
2022-08-20T11:10:34.450Z,19.64
2022-08-20T11:13:03.455Z,20.00
2022-08-20T11:15:37.222Z,20.23
2022-08-20T11:18:05.206Z,20.21
2022-08-20T11:20:32.726Z,20.48
2022-08-20T11:22:59.812Z,20.57
2022-08-20T11:25:27.478Z,20.75
2022-08-20T11:27:55.703Z,21.29
2022-08-20T11:30:26.761Z,21.76
2022-08-20T11:32:53.965Z,21.98
2022-08-20T11:35:42.072Z,22.08
2022-08-20T11:38:11.054Z,21.98
2022-08-20T11:40:37.879Z,21.94
2022-08-20T11:43:20.289Z,21.55
2022-08-20T11:45:50.141Z,21.64
2022-08-20T11:48:18.362Z,21.42
2022-08-20T11:50:46.330Z,21.06
2022-08-20T11:53:13.334Z,20.69
2022-08-20T11:55:42.161Z,20.40
2022-08-20T11:58:10.025Z,20.23
2022-08-20T12:00:37.459Z,20.28
2022-08-20T12:03:09.237Z,20.25
2022-08-20T12:05:37.665Z,20.19
2022-08-20T12:08:04.863Z,19.98
2022-08-20T12:10:32.290Z,19.97
2022-08-20T12:12:59.199Z,20.14
2022-08-20T12:15:27.898Z,20.39
2022-08-20T12:17:55.624Z,20.53
2022-08-20T12:20:23.707Z,20.63
2022-08-20T12:22:51.462Z,20.60
2022-08-20T12:25:18.512Z,20.87
2022-08-20T12:27:46.819Z,21.13
2022-08-20T12:30:17.746Z,21.37
2022-08-20T12:32:45.123Z,21.53
2022-08-20T12:35:13.583Z,21.49
2022-08-20T12:37:40.943Z,21.40
2022-08-20T12:40:12.531Z,21.60
2022-08-20T12:42:40.009Z,21.63
2022-08-20T12:45:07.684Z,21.73
2022-08-20T12:47:37.396Z,21.71
2022-08-20T12:50:07.948Z,21.66
2022-08-20T12:52:35.275Z,21.19
2022-08-20T12:55:02.843Z,20.66
2022-08-20T12:57:34.288Z,20.31
2022-08-20T13:00:07.298Z,20.00
2022-08-20T13:02:35.246Z,19.61
2022-08-20T13:05:04.893Z,19.45
2022-08-20T13:07:33.026Z,19.04
2022-08-20T13:10:00.783Z,18.61
2022-08-20T13:12:28.403Z,18.40
2022-08-20T13:14:55.384Z,18.26
2022-08-20T13:17:38.310Z,18.20
2022-08-20T13:20:09.828Z,17.94
2022-08-20T13:22:37.405Z,17.81
2022-08-20T13:25:06.157Z,17.68
2022-08-20T13:27:33.257Z,17.59
2022-08-20T13:30:00.247Z,17.45
2022-08-20T13:32:27.244Z,17.19
2022-08-20T13:34:54.339Z,17.31
2022-08-20T13:37:25.799Z,17.47
2022-08-20T13:39:57.969Z,17.55
2022-08-20T13:42:25.988Z,17.65
2022-08-20T13:44:53.682Z,17.55
2022-08-20T13:47:30.013Z,17.65
2022-08-20T13:50:05.348Z,17.71
2022-08-20T13:52:33.159Z,17.78
2022-08-20T13:55:03.152Z,17.94
2022-08-20T13:57:33.507Z,18.11
2022-08-20T14:00:00.272Z,18.18
2022-08-20T14:02:27.513Z,18.14
2022-08-20T14:04:55.046Z,18.08
2022-08-20T14:07:27.645Z,18.24
2022-08-20T14:10:04.023Z,18.38
2022-08-20T14:12:31.024Z,18.39
2022-08-20T14:14:58.560Z,18.53
2022-08-20T14:17:33.745Z,18.66
2022-08-20T14:20:16.797Z,18.77
2022-08-20T14:22:44.832Z,18.72
2022-08-20T14:25:15.582Z,18.84
2022-08-20T14:27:43.098Z,18.99
2022-08-20T14:30:13.922Z,19.02
2022-08-20T14:32:40.790Z,19.04
2022-08-20T14:35:09.225Z,19.01
2022-08-20T14:37:38.842Z,19.04
2022-08-20T14:40:12.014Z,19.09
2022-08-20T14:42:39.823Z,19.19
2022-08-20T14:45:08.583Z,19.37
2022-08-20T14:47:44.217Z,19.40
2022-08-20T14:50:17.417Z,19.50
2022-08-20T14:52:44.500Z,19.50
2022-08-20T14:55:15.103Z,19.53
2022-08-20T14:57:42.736Z,19.66
2022-08-20T15:00:12.804Z,19.53
2022-08-20T15:02:40.406Z,19.56
2022-08-20T15:05:08.470Z,19.56
2022-08-20T15:07:39.077Z,19.53
2022-08-20T15:10:13.160Z,19.53
2022-08-20T15:12:40.167Z,19.36
2022-08-20T15:15:15.442Z,19.26
2022-08-20T15:17:46.277Z,19.07
2022-08-20T15:20:20.731Z,18.90
2022-08-20T15:22:49.442Z,18.92
2022-08-20T15:25:19.236Z,18.94
2022-08-20T15:27:47.000Z,18.93
2022-08-20T15:30:18.066Z,18.85
2022-08-20T15:32:45.507Z,18.84
2022-08-20T15:35:13.742Z,18.67
2022-08-20T15:37:43.315Z,18.76
2022-08-20T15:40:12.199Z,18.88
2022-08-20T15:42:40.312Z,18.87
2022-08-20T15:45:08.899Z,18.94
2022-08-20T15:47:48.898Z,18.88
2022-08-20T15:50:31.494Z,18.88
2022-08-20T15:53:07.154Z,18.89
2022-08-20T15:55:36.005Z,18.92
2022-08-20T15:58:46.022Z,18.91
2022-08-20T16:01:40.331Z,18.90
2022-08-20T16:04:33.423Z,19.05
2022-08-20T16:07:07.269Z,19.13
2022-08-20T16:09:49.188Z,18.97
2022-08-20T16:12:36.924Z,19.03
2022-08-20T16:15:14.540Z,19.02
2022-08-20T16:17:47.713Z,18.96
2022-08-20T16:20:35.251Z,18.97
2022-08-20T16:23:04.277Z,18.84
2022-08-20T16:25:38.984Z,18.72
2022-08-20T16:28:24.256Z,18.67
2022-08-20T16:31:04.230Z,18.76
2022-08-20T16:34:34.339Z,18.82
2022-08-20T16:37:16.601Z,18.74
2022-08-20T16:39:52.858Z,18.64
2022-08-20T16:42:24.675Z,18.76
2022-08-20T16:44:54.996Z,18.81
2022-08-20T16:47:31.851Z,18.84
2022-08-20T16:50:07.002Z,18.83
2022-08-20T16:52:34.112Z,18.66
2022-08-20T16:55:01.109Z,18.63
2022-08-20T16:57:29.222Z,18.59
2022-08-20T17:00:18.911Z,18.59
2022-08-20T17:02:52.561Z,18.62
2022-08-20T17:05:20.514Z,18.53
2022-08-20T17:07:51.400Z,18.49
2022-08-20T17:10:20.937Z,18.46
2022-08-20T17:13:13.988Z,18.43
2022-08-20T17:15:44.875Z,18.30
2022-08-20T17:18:34.615Z,18.38
2022-08-20T17:21:06.643Z,18.38
2022-08-20T17:23:54.829Z,18.27
2022-08-20T17:26:42.809Z,18.23
2022-08-20T17:29:20.414Z,18.16
2022-08-20T17:31:57.558Z,18.23
2022-08-20T17:34:28.495Z,18.10
2022-08-20T17:37:34.833Z,18.05
2022-08-20T17:40:12.029Z,18.01
2022-08-20T17:42:58.708Z,17.97
2022-08-20T17:45:33.253Z,18.00
2022-08-20T17:48:00.650Z,17.98
2022-08-20T17:50:33.489Z,17.95
2022-08-20T17:53:23.560Z,17.96
2022-08-20T17:55:58.750Z,17.86
2022-08-20T17:58:55.015Z,17.83
2022-08-20T18:01:23.812Z,17.87
2022-08-20T18:03:52.642Z,17.79
2022-08-20T18:06:42.751Z,17.69
2022-08-20T18:09:32.974Z,17.62
2022-08-20T18:12:21.830Z,17.56
2022-08-20T18:15:24.670Z,17.59
2022-08-20T18:18:10.433Z,17.58
2022-08-20T18:20:37.855Z,17.58
2022-08-20T18:23:23.797Z,17.49
2022-08-20T18:25:57.505Z,17.46
2022-08-20T18:28:38.592Z,17.34
2022-08-20T18:31:08.996Z,17.32
2022-08-20T18:33:39.728Z,17.28
2022-08-20T18:36:11.261Z,17.33
2022-08-20T18:38:44.173Z,17.32
2022-08-20T18:41:27.881Z,17.26
2022-08-20T18:44:28.275Z,17.18
2022-08-20T18:46:57.562Z,17.13
2022-08-20T18:49:41.670Z,17.11
2022-08-20T18:52:15.780Z,17.10
2022-08-20T18:54:50.572Z,17.01
2022-08-20T18:57:26.371Z,16.97
2022-08-20T19:00:14.219Z,17.01
2022-08-20T19:03:07.050Z,16.98
2022-08-20T19:05:45.023Z,16.94
2022-08-20T19:08:25.582Z,16.99
2022-08-20T19:10:55.218Z,16.99
2022-08-20T19:13:30.792Z,16.98
2022-08-20T19:16:05.752Z,16.99
2022-08-20T19:18:54.833Z,17.03
2022-08-20T19:21:32.843Z,17.09
2022-08-20T19:24:02.886Z,17.11
2022-08-20T19:26:33.058Z,17.09
2022-08-20T19:29:09.224Z,17.10
2022-08-20T19:31:37.260Z,17.04
2022-08-20T19:34:07.310Z,17.06
2022-08-20T19:36:59.187Z,17.13
2022-08-20T19:39:35.669Z,17.18
2022-08-20T19:42:09.056Z,17.15
2022-08-20T19:44:41.262Z,17.09
2022-08-20T19:47:30.683Z,16.96
2022-08-20T19:50:16.017Z,16.97
2022-08-20T19:52:56.808Z,16.99
2022-08-20T19:55:26.714Z,16.90
2022-08-20T19:57:59.791Z,16.95
2022-08-20T20:00:30.771Z,17.03
2022-08-20T20:03:08.777Z,16.99
2022-08-20T20:05:35.911Z,16.99
2022-08-20T20:08:03.865Z,17.03
2022-08-20T20:10:35.661Z,16.99
2022-08-20T20:13:12.365Z,17.00
2022-08-20T20:15:40.116Z,17.04
2022-08-20T20:18:08.843Z,17.01
2022-08-20T20:20:55.848Z,17.02
2022-08-20T20:23:46.073Z,16.94
2022-08-20T20:26:17.280Z,16.92
2022-08-20T20:28:48.354Z,16.93
2022-08-20T20:31:27.572Z,16.95
2022-08-20T20:33:58.686Z,16.92
2022-08-20T20:36:31.752Z,16.92
2022-08-20T20:39:05.804Z,16.91
2022-08-20T20:41:34.442Z,16.89
2022-08-20T20:44:03.036Z,16.93
2022-08-20T20:46:32.812Z,16.87
2022-08-20T20:49:08.742Z,16.90
2022-08-20T20:51:41.284Z,16.88
2022-08-20T20:54:43.147Z,16.83
2022-08-20T20:57:38.739Z,16.78
2022-08-20T21:00:17.558Z,16.75
2022-08-20T21:02:45.534Z,16.73
2022-08-20T21:05:15.041Z,16.73
2022-08-20T21:07:54.422Z,16.77
2022-08-20T21:10:24.565Z,16.66
2022-08-20T21:12:53.119Z,16.65
2022-08-20T21:15:22.286Z,16.65
2022-08-20T21:17:49.043Z,16.68
2022-08-20T21:20:16.186Z,16.66
2022-08-20T21:22:43.264Z,16.69
2022-08-20T21:25:11.331Z,16.72
2022-08-20T21:27:43.128Z,16.71
2022-08-20T21:30:10.395Z,16.67
2022-08-20T21:32:37.372Z,16.64
2022-08-20T21:35:04.278Z,16.65
2022-08-20T21:37:31.037Z,16.61
2022-08-20T21:39:57.824Z,16.61
2022-08-20T21:42:29.322Z,16.60
2022-08-20T21:44:58.156Z,16.64
2022-08-20T21:47:25.866Z,16.65
2022-08-20T21:49:53.421Z,16.63
2022-08-20T21:52:20.467Z,16.60
2022-08-20T21:54:47.476Z,16.61
2022-08-20T21:57:28.005Z,16.60
2022-08-20T21:59:56.040Z,16.56
2022-08-20T22:02:25.153Z,16.62
2022-08-20T22:04:53.907Z,16.66
2022-08-20T22:07:22.020Z,16.66
2022-08-20T22:09:48.839Z,16.68
2022-08-20T22:12:19.762Z,16.73
2022-08-20T22:14:47.243Z,16.68
2022-08-20T22:17:15.247Z,16.59
2022-08-20T22:19:42.067Z,16.52
2022-08-20T22:22:11.233Z,16.50
2022-08-20T22:24:38.470Z,16.48
2022-08-20T22:27:08.291Z,16.46
2022-08-20T22:29:35.309Z,16.45
2022-08-20T22:32:02.440Z,16.42
2022-08-20T22:34:32.014Z,16.36
2022-08-20T22:37:00.310Z,16.33
2022-08-20T22:39:27.465Z,16.31
2022-08-20T22:41:58.999Z,16.28
2022-08-20T22:44:26.058Z,16.26
2022-08-20T22:46:56.370Z,16.20
2022-08-20T22:49:28.146Z,16.17
2022-08-20T22:51:56.655Z,16.15
2022-08-20T22:54:25.143Z,16.15
2022-08-20T22:56:53.171Z,16.15
2022-08-20T22:59:21.439Z,16.07
2022-08-20T23:01:49.876Z,16.04
2022-08-20T23:04:28.305Z,16.06
2022-08-20T23:06:56.723Z,16.13
2022-08-20T23:09:24.540Z,16.09
2022-08-20T23:11:51.787Z,16.05
2022-08-20T23:14:19.209Z,16.06
2022-08-20T23:16:50.818Z,16.09
2022-08-20T23:19:23.255Z,16.04
2022-08-20T23:21:51.386Z,16.01
2022-08-20T23:24:18.382Z,15.93
2022-08-20T23:26:52.367Z,15.90
2022-08-20T23:29:22.596Z,16.00
2022-08-20T23:31:53.541Z,16.03
2022-08-20T23:34:20.223Z,16.01
2022-08-20T23:36:47.152Z,16.00
2022-08-20T23:39:14.209Z,15.99
2022-08-20T23:41:45.416Z,15.95
2022-08-20T23:44:25.441Z,15.94
2022-08-20T23:46:59.284Z,15.97
2022-08-20T23:49:27.414Z,15.95
2022-08-20T23:51:54.586Z,15.89
2022-08-20T23:54:21.910Z,15.86
2022-08-20T23:56:49.800Z,15.74
2022-08-20T23:59:16.888Z,15.79
